• Join FlightAware (Why Join?)
  • Login
  • US Flag 
12:28PM EST


 

Airport Tracker/Info


-or-


 

Live Flight TrackerFlight Track Log ✈ EGF2879 ✈ 11-Mar-2012 ✈ KDFW - KXNA

Flight Track Log - Related Links

Times and Time Zones

All times are in EDT time to prevent confusion due to time zone crossing. See the EGF2879 flight status page for this flight to view local times or setup timezone preferences in your user account.

Time Position Orientation Groundspeed Altitude Reporting Facility
EDT Latitude Longitude Course Direction KTS MPH feet Rate Location/Type
08:58PM 32.8641 -97.0256 352° North  Level FlightAware Approximate
08:59PM 32.8856 -97.0294 178° South 149 171 1,300  Level FAA TRACON SMA TRACON (SMA)
08:59PM 32.8517 -97.0281 157° South 180 207 2,700 2,280 Climbing FAA TRACON SMA TRACON (SMA)
09:00PM 32.8158 -97.0103 108° East 205 236 4,400 1,980 Climbing FAA TRACON SMA TRACON (SMA)
09:01PM 32.8036 -96.9667 70° East 250 288 5,400 1,620 Climbing FAA TRACON SMA TRACON (SMA)
09:01PM 32.8217 -96.9075 26° Northeast 283 326 6,600 1,920 Climbing FAA TRACON SMA TRACON (SMA)
09:02PM 32.8700 -96.8800 North 286 329 8,000 2,160 Climbing FAA TRACON SMA TRACON (SMA)
09:03PM 32.9175 -96.8744 North 279 321 9,500 1,920 Climbing FAA TRACON SMA TRACON (SMA)
09:03PM 32.9742 -96.8692 North 296 341 10,600 1,500 Climbing FAA TRACON SMA TRACON (SMA)
09:04PM 33.0350 -96.8636 North 321 369 11,600 1,380 Climbing FAA TRACON SMA TRACON (SMA)
09:05PM 33.0997 -96.8575 North 337 388 12,500 1,260 Climbing FAA TRACON SMA TRACON (SMA)
09:05PM 33.1597 -96.8522 North 350 403 13,300 1,260 Climbing FAA TRACON SMA TRACON (SMA)
09:06PM 33.2294 -96.8456 North 363 418 14,200 1,380 Climbing FAA TRACON SMA TRACON (SMA)
09:07PM 33.3011 -96.8392 North 373 429 15,200 1,320 Climbing FAA TRACON SMA TRACON (SMA)
09:07PM 33.3653 -96.8328 North 377 434 16,000 1,200 Climbing FAA TRACON SMA TRACON (SMA)
09:08PM 33.4381 -96.8250 21° North 379 436 16,900 1,380 Climbing FAA TRACON SMA TRACON (SMA)
09:09PM 33.5086 -96.7928 28° Northeast 397 457 17,900 1,320 Climbing FAA TRACON SMA TRACON (SMA)
09:09PM 33.5692 -96.7533 28° Northeast 403 464 18,700 1,260 Climbing FAA TRACON SMA TRACON (SMA)
09:10PM 33.6386 -96.7083 28° Northeast 409 471 19,600 1,320 Climbing FAA TRACON SMA TRACON (SMA)
09:11PM 33.7089 -96.6636 28° Northeast 413 475 20,500 1,260 Climbing FAA TRACON SMA TRACON (SMA)
09:11PM 33.7719 -96.6239 28° Northeast 414 476 21,300 1,320 Climbing FAA TRACON SMA TRACON (SMA)
09:12PM 33.8431 -96.5789 30° Northeast 418 481 22,300 1,320 Climbing FAA TRACON SMA TRACON (SMA)
09:13PM 33.9469 -96.5072 28° Northeast 414 476 23,600 1,260 Climbing Fort Worth Center
09:14PM 34.0486 -96.4408 33° Northeast 414 476 24,900 1,320 Climbing Fort Worth Center
09:15PM 34.1461 -96.3644 36° Northeast 413 475 26,300 1,320 Climbing Fort Worth Center
09:16PM 34.2456 -96.2778 34° Northeast 413 475 27,600 1,260 Climbing Fort Worth Center
09:17PM 34.3428 -96.1986 34° Northeast 420 483 28,900 660 Climbing Fort Worth Center
09:18PM 34.4442 -96.1167 35° Northeast 420 483 29,000  Climbing Fort Worth Center
09:19PM 34.5414 -96.0344 34° Northeast 436 502 29,000  Level Fort Worth Center
09:20PM 34.6550 -95.9419 34° Northeast 464 534 29,000  Level Fort Worth Center
09:21PM 34.7708 -95.8464 37° Northeast 490 564 29,000 -120 Level Fort Worth Center
09:22PM 34.8861 -95.7403 43° Northeast 503 579 28,800 -900 Descending Fort Worth Center
09:23PM 34.9931 -95.6167 43° Northeast 519 597 27,300 -1,500 Descending Fort Worth Center
09:24PM 35.0956 -95.4978 44° Northeast 514 592 25,900 -1,500 Descending Fort Worth Center
09:25PM 35.2061 -95.3681 43° Northeast 508 585 24,400 -1,560 Descending Fort Worth Center
09:26PM 35.2836 -95.2789 44° Northeast 505 581 23,200 -1,560 Descending Memphis Center
09:27PM 35.3844 -95.1575 43° Northeast 499 574 21,700 -1,500 Descending Memphis Center
09:28PM 35.4847 -95.0433 45° Northeast 499 574 20,200 -1,500 Descending Memphis Center
09:29PM 35.5764 -94.9311 44° Northeast 494 568 18,700 -1,500 Descending Memphis Center
09:30PM 35.6656 -94.8261 44° Northeast 461 531 17,200 -1,860 Descending Memphis Center
09:31PM 35.7486 -94.7258 36° Northeast 437 503 15,000 -2,220 Descending Memphis Center
09:32PM 35.8367 -94.6461 18° North 405 466 12,800 -2,220 Descending Memphis Center
09:33PM 35.9339 -94.6075 18° North 372 428 10,600 -1,440 Descending Memphis Center
09:34PM 36.0228 -94.5711 16° North 353 406 10,000 -1,140 Descending Memphis Center
09:35PM 36.1072 -94.5419 19° North 328 377 8,400 -1,680 Descending Memphis Center
09:36PM 36.1897 -94.5075 11° North 311 358 6,700 -1,800 Descending Memphis Center
09:37PM 36.2717 -94.4886 North 305 351 4,800 -1,800 Descending Memphis Center
09:38PM 36.3492 -94.4797 North 292 336 3,100 -900 Descending Memphis Center
09:39PM 36.4203 -94.4678 North 278 320 3,000 -120 Descending Memphis Center